sensor_id;sensor_type;location;lat;lon;timestamp;P1;durP1;ratioP1;P2;durP2;ratioP2
7753;SDS011;3921;42.266;23.122;2023-03-01T00:00:29;3.23;;;2.00;;
7753;SDS011;3921;42.266;23.122;2023-03-01T00:02:56;2.37;;;1.70;;
7753;SDS011;3921;42.266;23.122;2023-03-01T00:05:24;1.40;;;1.30;;
7753;SDS011;3921;42.266;23.122;2023-03-01T00:07:52;3.13;;;1.30;;
7753;SDS011;3921;42.266;23.122;2023-03-01T00:10:22;1.93;;;1.70;;
7753;SDS011;3921;42.266;23.122;2023-03-01T00:12:49;1.60;;;1.50;;
7753;SDS011;3921;42.266;23.122;2023-03-01T00:15:16;1.40;;;1.30;;
7753;SDS011;3921;42.266;23.122;2023-03-01T00:17:43;1.50;;;1.40;;
7753;SDS011;3921;42.266;23.122;2023-03-01T00:20:11;1.33;;;1.23;;
7753;SDS011;3921;42.266;23.122;2023-03-01T00:22:38;1.47;;;1.37;;
7753;SDS011;3921;42.266;23.122;2023-03-01T00:25:05;1.63;;;1.40;;
7753;SDS011;3921;42.266;23.122;2023-03-01T00:27:34;1.40;;;1.30;;
7753;SDS011;3921;42.266;23.122;2023-03-01T00:30:01;1.30;;;1.20;;
7753;SDS011;3921;42.266;23.122;2023-03-01T00:32:29;0.90;;;0.90;;
7753;SDS011;3921;42.266;23.122;2023-03-01T00:35:01;1.83;;;1.00;;
7753;SDS011;3921;42.266;23.122;2023-03-01T00:37:29;1.47;;;1.17;;
7753;SDS011;3921;42.266;23.122;2023-03-01T00:39:56;1.10;;;1.00;;
7753;SDS011;3921;42.266;23.122;2023-03-01T00:42:23;1.20;;;1.10;;
7753;SDS011;3921;42.266;23.122;2023-03-01T00:44:52;1.47;;;1.30;;
7753;SDS011;3921;42.266;23.122;2023-03-01T00:47:19;1.37;;;1.27;;
7753;SDS011;3921;42.266;23.122;2023-03-01T00:49:46;1.50;;;1.40;;
7753;SDS011;3921;42.266;23.122;2023-03-01T00:52:13;1.77;;;1.50;;
7753;SDS011;3921;42.266;23.122;2023-03-01T00:54:40;1.77;;;1.63;;
7753;SDS011;3921;42.266;23.122;2023-03-01T00:57:07;2.03;;;1.60;;
7753;SDS011;3921;42.266;23.122;2023-03-01T00:59:34;1.80;;;1.70;;
7753;SDS011;3921;42.266;23.122;2023-03-01T01:02:07;1.60;;;1.50;;
7753;SDS011;3921;42.266;23.122;2023-03-01T01:04:34;1.63;;;1.53;;
7753;SDS011;3921;42.266;23.122;2023-03-01T01:07:01;1.33;;;1.20;;
7753;SDS011;3921;42.266;23.122;2023-03-01T01:09:28;1.40;;;1.30;;
7753;SDS011;3921;42.266;23.122;2023-03-01T01:11:55;1.63;;;1.40;;
7753;SDS011;3921;42.266;23.122;2023-03-01T01:14:24;1.00;;;1.00;;
7753;SDS011;3921;42.266;23.122;2023-03-01T01:16:51;1.03;;;1.03;;
7753;SDS011;3921;42.266;23.122;2023-03-01T01:19:20;2.43;;;1.27;;
7753;SDS011;3921;42.266;23.122;2023-03-01T01:21:47;1.10;;;1.00;;
7753;SDS011;3921;42.266;23.122;2023-03-01T01:24:14;1.10;;;1.10;;
7753;SDS011;3921;42.266;23.122;2023-03-01T01:26:41;1.00;;;0.90;;
7753;SDS011;3921;42.266;23.122;2023-03-01T01:29:15;1.17;;;1.07;;
7753;SDS011;3921;42.266;23.122;2023-03-01T01:31:45;1.20;;;1.10;;
7753;SDS011;3921;42.266;23.122;2023-03-01T01:34:18;1.40;;;1.00;;
7753;SDS011;3921;42.266;23.122;2023-03-01T01:36:49;1.40;;;1.27;;
7753;SDS011;3921;42.266;23.122;2023-03-01T01:39:18;2.57;;;1.50;;
7753;SDS011;3921;42.266;23.122;2023-03-01T01:41:45;3.57;;;1.97;;
7753;SDS011;3921;42.266;23.122;2023-03-01T01:44:14;1.57;;;1.23;;
7753;SDS011;3921;42.266;23.122;2023-03-01T01:46:44;2.67;;;1.50;;
7753;SDS011;3921;42.266;23.122;2023-03-01T01:49:17;2.43;;;1.60;;
7753;SDS011;3921;42.266;23.122;2023-03-01T01:52:22;1.40;;;1.20;;
7753;SDS011;3921;42.266;23.122;2023-03-01T01:54:53;1.47;;;1.37;;
7753;SDS011;3921;42.266;23.122;2023-03-01T01:57:25;1.43;;;1.33;;
7753;SDS011;3921;42.266;23.122;2023-03-01T01:59:57;1.00;;;1.00;;
7753;SDS011;3921;42.266;23.122;2023-03-01T02:02:26;1.97;;;1.20;;
7753;SDS011;3921;42.266;23.122;2023-03-01T02:04:55;2.73;;;1.33;;
7753;SDS011;3921;42.266;23.122;2023-03-01T02:07:36;1.47;;;1.30;;
7753;SDS011;3921;42.266;23.122;2023-03-01T02:10:06;1.97;;;1.37;;
7753;SDS011;3921;42.266;23.122;2023-03-01T02:12:33;2.60;;;1.30;;
7753;SDS011;3921;42.266;23.122;2023-03-01T02:15:02;1.70;;;1.50;;
7753;SDS011;3921;42.266;23.122;2023-03-01T02:17:31;1.37;;;1.20;;
7753;SDS011;3921;42.266;23.122;2023-03-01T02:20:03;1.30;;;1.20;;
7753;SDS011;3921;42.266;23.122;2023-03-01T02:22:39;1.63;;;1.20;;
7753;SDS011;3921;42.266;23.122;2023-03-01T02:25:12;1.50;;;1.40;;
7753;SDS011;3921;42.266;23.122;2023-03-01T02:27:58;1.50;;;1.40;;
7753;SDS011;3921;42.266;23.122;2023-03-01T02:30:34;1.40;;;1.30;;
7753;SDS011;3921;42.266;23.122;2023-03-01T02:33:02;1.40;;;1.30;;
7753;SDS011;3921;42.266;23.122;2023-03-01T02:35:30;1.90;;;1.53;;
7753;SDS011;3921;42.266;23.122;2023-03-01T02:38:00;1.30;;;1.27;;
7753;SDS011;3921;42.266;23.122;2023-03-01T02:40:32;1.30;;;1.20;;
7753;SDS011;3921;42.266;23.122;2023-03-01T02:43:02;1.53;;;1.43;;
7753;SDS011;3921;42.266;23.122;2023-03-01T02:45:34;2.03;;;1.70;;
7753;SDS011;3921;42.266;23.122;2023-03-01T02:48:01;2.03;;;1.47;;
7753;SDS011;3921;42.266;23.122;2023-03-01T02:53:23;1.67;;;1.57;;
7753;SDS011;3921;42.266;23.122;2023-03-01T02:56:01;2.23;;;1.90;;
7753;SDS011;3921;42.266;23.122;2023-03-01T02:58:28;1.80;;;1.70;;
7753;SDS011;3921;42.266;23.122;2023-03-01T03:00:56;1.90;;;1.70;;
7753;SDS011;3921;42.266;23.122;2023-03-01T03:03:26;1.97;;;1.77;;
7753;SDS011;3921;42.266;23.122;2023-03-01T03:05:56;1.70;;;1.60;;
7753;SDS011;3921;42.266;23.122;2023-03-01T03:08:24;1.80;;;1.70;;
7753;SDS011;3921;42.266;23.122;2023-03-01T03:10:51;2.03;;;1.60;;
7753;SDS011;3921;42.266;23.122;2023-03-01T03:13:18;1.73;;;1.60;;
7753;SDS011;3921;42.266;23.122;2023-03-01T03:15:47;1.40;;;1.30;;
7753;SDS011;3921;42.266;23.122;2023-03-01T03:18:16;1.50;;;1.40;;
7753;SDS011;3921;42.266;23.122;2023-03-01T03:20:43;1.80;;;1.53;;
7753;SDS011;3921;42.266;23.122;2023-03-01T03:23:12;2.07;;;1.80;;
7753;SDS011;3921;42.266;23.122;2023-03-01T03:25:55;1.50;;;1.40;;
7753;SDS011;3921;42.266;23.122;2023-03-01T03:28:22;1.57;;;1.33;;
7753;SDS011;3921;42.266;23.122;2023-03-01T03:30:50;3.03;;;1.67;;
7753;SDS011;3921;42.266;23.122;2023-03-01T03:33:18;1.80;;;1.60;;
7753;SDS011;3921;42.266;23.122;2023-03-01T03:35:46;1.77;;;1.60;;
7753;SDS011;3921;42.266;23.122;2023-03-01T03:38:15;2.53;;;1.40;;
7753;SDS011;3921;42.266;23.122;2023-03-01T03:40:48;1.53;;;1.43;;
7753;SDS011;3921;42.266;23.122;2023-03-01T03:46:20;1.33;;;1.10;;
7753;SDS011;3921;42.266;23.122;2023-03-01T03:48:48;1.40;;;1.30;;
7753;SDS011;3921;42.266;23.122;2023-03-01T03:51:17;1.17;;;1.10;;
7753;SDS011;3921;42.266;23.122;2023-03-01T03:53:47;1.50;;;1.23;;
7753;SDS011;3921;42.266;23.122;2023-03-01T03:59:00;1.10;;;1.00;;
7753;SDS011;3921;42.266;23.122;2023-03-01T04:01:27;1.67;;;1.23;;
7753;SDS011;3921;42.266;23.122;2023-03-01T04:03:56;1.43;;;1.33;;
7753;SDS011;3921;42.266;23.122;2023-03-01T04:06:29;1.70;;;1.60;;
7753;SDS011;3921;42.266;23.122;2023-03-01T04:08:56;1.83;;;1.73;;
7753;SDS011;3921;42.266;23.122;2023-03-01T04:11:25;1.50;;;1.40;;
7753;SDS011;3921;42.266;23.122;2023-03-01T04:13:53;1.40;;;1.30;;
7753;SDS011;3921;42.266;23.122;2023-03-01T04:16:22;1.50;;;1.30;;
7753;SDS011;3921;42.266;23.122;2023-03-01T04:18:49;1.47;;;1.37;;
7753;SDS011;3921;42.266;23.122;2023-03-01T04:21:20;2.03;;;1.60;;
7753;SDS011;3921;42.266;23.122;2023-03-01T04:23:47;1.73;;;1.60;;
7753;SDS011;3921;42.266;23.122;2023-03-01T04:26:17;1.57;;;1.47;;
7753;SDS011;3921;42.266;23.122;2023-03-01T04:28:45;1.90;;;1.70;;
7753;SDS011;3921;42.266;23.122;2023-03-01T04:31:17;1.53;;;1.43;;
7753;SDS011;3921;42.266;23.122;2023-03-01T04:33:46;2.00;;;1.67;;
7753;SDS011;3921;42.266;23.122;2023-03-01T04:36:16;1.90;;;1.70;;
7753;SDS011;3921;42.266;23.122;2023-03-01T04:38:46;1.50;;;1.40;;
7753;SDS011;3921;42.266;23.122;2023-03-01T04:43:48;2.23;;;1.57;;
7753;SDS011;3921;42.266;23.122;2023-03-01T04:46:17;2.57;;;1.83;;
7753;SDS011;3921;42.266;23.122;2023-03-01T04:48:46;2.70;;;1.90;;
7753;SDS011;3921;42.266;23.122;2023-03-01T04:51:14;2.10;;;1.80;;
7753;SDS011;3921;42.266;23.122;2023-03-01T04:53:42;2.50;;;1.60;;
7753;SDS011;3921;42.266;23.122;2023-03-01T04:56:11;1.90;;;1.80;;
7753;SDS011;3921;42.266;23.122;2023-03-01T04:58:39;1.90;;;1.70;;
7753;SDS011;3921;42.266;23.122;2023-03-01T05:01:13;2.00;;;1.80;;
7753;SDS011;3921;42.266;23.122;2023-03-01T05:03:42;1.50;;;1.40;;
7753;SDS011;3921;42.266;23.122;2023-03-01T05:06:11;1.90;;;1.80;;
7753;SDS011;3921;42.266;23.122;2023-03-01T05:08:38;2.43;;;2.00;;
7753;SDS011;3921;42.266;23.122;2023-03-01T05:11:06;2.23;;;2.00;;
7753;SDS011;3921;42.266;23.122;2023-03-01T05:13:36;2.13;;;1.57;;
7753;SDS011;3921;42.266;23.122;2023-03-01T05:16:05;1.83;;;1.70;;
7753;SDS011;3921;42.266;23.122;2023-03-01T05:18:36;2.00;;;1.70;;
7753;SDS011;3921;42.266;23.122;2023-03-01T05:21:06;2.70;;;1.50;;
7753;SDS011;3921;42.266;23.122;2023-03-01T05:23:34;2.20;;;1.83;;
7753;SDS011;3921;42.266;23.122;2023-03-01T05:26:03;1.83;;;1.70;;
7753;SDS011;3921;42.266;23.122;2023-03-01T05:28:32;1.80;;;1.70;;
7753;SDS011;3921;42.266;23.122;2023-03-01T05:31:04;2.50;;;2.20;;
7753;SDS011;3921;42.266;23.122;2023-03-01T05:33:35;2.20;;;1.90;;
7753;SDS011;3921;42.266;23.122;2023-03-01T05:36:02;2.27;;;1.80;;
7753;SDS011;3921;42.266;23.122;2023-03-01T05:38:30;1.40;;;1.30;;
7753;SDS011;3921;42.266;23.122;2023-03-01T05:40:57;2.00;;;1.70;;
7753;SDS011;3921;42.266;23.122;2023-03-01T05:43:24;1.90;;;1.50;;
7753;SDS011;3921;42.266;23.122;2023-03-01T05:46:07;1.27;;;1.23;;
7753;SDS011;3921;42.266;23.122;2023-03-01T05:48:38;1.37;;;1.30;;
7753;SDS011;3921;42.266;23.122;2023-03-01T05:51:05;1.47;;;1.37;;
7753;SDS011;3921;42.266;23.122;2023-03-01T05:53:32;1.50;;;1.40;;
7753;SDS011;3921;42.266;23.122;2023-03-01T05:55:59;1.67;;;1.47;;
7753;SDS011;3921;42.266;23.122;2023-03-01T05:58:33;1.80;;;1.70;;
7753;SDS011;3921;42.266;23.122;2023-03-01T06:01:00;2.00;;;1.90;;
7753;SDS011;3921;42.266;23.122;2023-03-01T06:03:33;2.83;;;1.90;;
7753;SDS011;3921;42.266;23.122;2023-03-01T06:06:03;22.50;;;15.67;;
7753;SDS011;3921;42.266;23.122;2023-03-01T06:08:30;2.77;;;2.30;;
7753;SDS011;3921;42.266;23.122;2023-03-01T06:11:00;1.70;;;1.60;;
7753;SDS011;3921;42.266;23.122;2023-03-01T06:13:47;1.67;;;1.57;;
7753;SDS011;3921;42.266;23.122;2023-03-01T06:16:14;1.63;;;1.53;;
7753;SDS011;3921;42.266;23.122;2023-03-01T06:18:42;1.60;;;1.50;;
7753;SDS011;3921;42.266;23.122;2023-03-01T06:21:10;1.90;;;1.60;;
7753;SDS011;3921;42.266;23.122;2023-03-01T06:23:37;1.53;;;1.43;;
7753;SDS011;3921;42.266;23.122;2023-03-01T06:26:07;2.30;;;1.90;;
7753;SDS011;3921;42.266;23.122;2023-03-01T06:28:36;2.27;;;1.97;;
7753;SDS011;3921;42.266;23.122;2023-03-01T06:31:04;1.77;;;1.67;;
7753;SDS011;3921;42.266;23.122;2023-03-01T06:33:33;1.87;;;1.70;;
7753;SDS011;3921;42.266;23.122;2023-03-01T06:36:02;2.27;;;2.07;;
7753;SDS011;3921;42.266;23.122;2023-03-01T06:38:30;4.03;;;1.80;;
7753;SDS011;3921;42.266;23.122;2023-03-01T06:40:57;1.60;;;1.50;;
7753;SDS011;3921;42.266;23.122;2023-03-01T06:43:24;1.90;;;1.47;;
7753;SDS011;3921;42.266;23.122;2023-03-01T06:45:51;2.13;;;1.73;;
7753;SDS011;3921;42.266;23.122;2023-03-01T06:48:18;2.40;;;1.70;;
7753;SDS011;3921;42.266;23.122;2023-03-01T06:50:46;2.20;;;1.90;;
7753;SDS011;3921;42.266;23.122;2023-03-01T06:53:14;2.13;;;1.80;;
7753;SDS011;3921;42.266;23.122;2023-03-01T06:55:41;1.80;;;1.70;;
7753;SDS011;3921;42.266;23.122;2023-03-01T06:58:08;2.13;;;1.70;;
7753;SDS011;3921;42.266;23.122;2023-03-01T07:00:36;2.80;;;1.47;;
7753;SDS011;3921;42.266;23.122;2023-03-01T07:03:05;3.30;;;2.07;;
7753;SDS011;3921;42.266;23.122;2023-03-01T07:05:50;2.90;;;1.80;;
7753;SDS011;3921;42.266;23.122;2023-03-01T07:08:21;2.30;;;2.00;;
7753;SDS011;3921;42.266;23.122;2023-03-01T07:10:54;2.03;;;1.70;;
7753;SDS011;3921;42.266;23.122;2023-03-01T07:13:21;1.43;;;1.33;;
7753;SDS011;3921;42.266;23.122;2023-03-01T07:15:48;2.90;;;1.83;;
7753;SDS011;3921;42.266;23.122;2023-03-01T07:18:16;1.70;;;1.60;;
7753;SDS011;3921;42.266;23.122;2023-03-01T07:20:43;1.93;;;1.70;;
7753;SDS011;3921;42.266;23.122;2023-03-01T07:23:10;2.23;;;2.03;;
7753;SDS011;3921;42.266;23.122;2023-03-01T07:25:39;3.67;;;2.07;;
7753;SDS011;3921;42.266;23.122;2023-03-01T07:28:06;1.97;;;1.77;;
7753;SDS011;3921;42.266;23.122;2023-03-01T07:30:34;2.37;;;2.17;;
7753;SDS011;3921;42.266;23.122;2023-03-01T07:33:01;1.97;;;1.80;;
7753;SDS011;3921;42.266;23.122;2023-03-01T07:35:28;3.13;;;1.83;;
7753;SDS011;3921;42.266;23.122;2023-03-01T07:37:55;1.60;;;1.50;;
7753;SDS011;3921;42.266;23.122;2023-03-01T07:40:23;1.70;;;1.50;;
7753;SDS011;3921;42.266;23.122;2023-03-01T07:42:56;2.00;;;1.80;;
7753;SDS011;3921;42.266;23.122;2023-03-01T07:45:24;2.23;;;1.83;;
7753;SDS011;3921;42.266;23.122;2023-03-01T07:47:52;2.10;;;1.63;;
7753;SDS011;3921;42.266;23.122;2023-03-01T07:50:19;2.27;;;1.80;;
7753;SDS011;3921;42.266;23.122;2023-03-01T07:52:47;2.40;;;1.97;;
7753;SDS011;3921;42.266;23.122;2023-03-01T07:55:14;2.10;;;2.00;;
7753;SDS011;3921;42.266;23.122;2023-03-01T07:58:10;1.97;;;1.80;;
7753;SDS011;3921;42.266;23.122;2023-03-01T08:00:37;1.97;;;1.60;;
7753;SDS011;3921;42.266;23.122;2023-03-01T08:03:04;2.67;;;2.43;;
7753;SDS011;3921;42.266;23.122;2023-03-01T08:05:32;2.50;;;2.30;;
7753;SDS011;3921;42.266;23.122;2023-03-01T08:07:59;2.77;;;2.10;;
7753;SDS011;3921;42.266;23.122;2023-03-01T08:10:26;3.63;;;2.10;;
7753;SDS011;3921;42.266;23.122;2023-03-01T08:12:53;2.20;;;2.00;;
7753;SDS011;3921;42.266;23.122;2023-03-01T08:15:21;3.10;;;2.20;;
7753;SDS011;3921;42.266;23.122;2023-03-01T08:17:49;3.37;;;2.43;;
7753;SDS011;3921;42.266;23.122;2023-03-01T08:20:16;3.00;;;2.30;;
7753;SDS011;3921;42.266;23.122;2023-03-01T08:22:58;3.87;;;2.47;;
7753;SDS011;3921;42.266;23.122;2023-03-01T08:25:25;2.57;;;2.00;;
7753;SDS011;3921;42.266;23.122;2023-03-01T08:27:53;3.33;;;2.20;;
7753;SDS011;3921;42.266;23.122;2023-03-01T08:30:22;3.53;;;2.30;;
7753;SDS011;3921;42.266;23.122;2023-03-01T08:32:49;2.80;;;2.50;;
7753;SDS011;3921;42.266;23.122;2023-03-01T08:35:17;2.83;;;2.20;;
7753;SDS011;3921;42.266;23.122;2023-03-01T08:37:44;3.97;;;2.80;;
7753;SDS011;3921;42.266;23.122;2023-03-01T08:40:12;2.23;;;2.03;;
7753;SDS011;3921;42.266;23.122;2023-03-01T08:42:40;3.47;;;2.43;;
7753;SDS011;3921;42.266;23.122;2023-03-01T08:45:08;3.37;;;2.53;;
7753;SDS011;3921;42.266;23.122;2023-03-01T08:47:38;3.13;;;2.70;;
7753;SDS011;3921;42.266;23.122;2023-03-01T08:50:05;2.90;;;2.60;;
7753;SDS011;3921;42.266;23.122;2023-03-01T08:52:33;3.30;;;2.50;;
7753;SDS011;3921;42.266;23.122;2023-03-01T08:55:02;4.13;;;2.80;;
7753;SDS011;3921;42.266;23.122;2023-03-01T08:57:29;3.27;;;2.70;;
7753;SDS011;3921;42.266;23.122;2023-03-01T08:59:57;4.33;;;2.43;;
7753;SDS011;3921;42.266;23.122;2023-03-01T09:02:24;4.60;;;2.57;;
7753;SDS011;3921;42.266;23.122;2023-03-01T09:04:53;2.73;;;2.37;;
7753;SDS011;3921;42.266;23.122;2023-03-01T09:07:20;3.00;;;2.70;;
7753;SDS011;3921;42.266;23.122;2023-03-01T09:09:47;2.77;;;2.57;;
7753;SDS011;3921;42.266;23.122;2023-03-01T09:12:14;3.07;;;2.57;;
7753;SDS011;3921;42.266;23.122;2023-03-01T09:14:41;3.57;;;2.83;;
7753;SDS011;3921;42.266;23.122;2023-03-01T09:17:08;3.90;;;3.07;;
7753;SDS011;3921;42.266;23.122;2023-03-01T09:19:35;3.90;;;2.40;;
7753;SDS011;3921;42.266;23.122;2023-03-01T09:22:04;3.97;;;3.50;;
7753;SDS011;3921;42.266;23.122;2023-03-01T09:24:31;3.90;;;2.97;;
7753;SDS011;3921;42.266;23.122;2023-03-01T09:26:58;3.63;;;2.70;;
7753;SDS011;3921;42.266;23.122;2023-03-01T09:29:26;4.17;;;2.50;;
7753;SDS011;3921;42.266;23.122;2023-03-01T09:31:53;3.73;;;3.10;;
7753;SDS011;3921;42.266;23.122;2023-03-01T09:34:21;4.23;;;2.87;;
7753;SDS011;3921;42.266;23.122;2023-03-01T09:36:49;4.17;;;3.10;;
7753;SDS011;3921;42.266;23.122;2023-03-01T09:39:18;3.20;;;2.70;;
7753;SDS011;3921;42.266;23.122;2023-03-01T09:41:50;4.90;;;3.10;;
7753;SDS011;3921;42.266;23.122;2023-03-01T09:44:27;3.40;;;2.97;;
7753;SDS011;3921;42.266;23.122;2023-03-01T09:47:10;4.63;;;3.33;;
7753;SDS011;3921;42.266;23.122;2023-03-01T09:49:42;6.13;;;3.20;;
7753;SDS011;3921;42.266;23.122;2023-03-01T09:52:19;3.57;;;3.27;;
7753;SDS011;3921;42.266;23.122;2023-03-01T09:54:55;3.53;;;3.20;;
7753;SDS011;3921;42.266;23.122;2023-03-01T09:57:26;4.03;;;3.63;;
7753;SDS011;3921;42.266;23.122;2023-03-01T10:00:05;4.03;;;3.53;;
7753;SDS011;3921;42.266;23.122;2023-03-01T10:02:42;6.40;;;4.30;;
7753;SDS011;3921;42.266;23.122;2023-03-01T10:05:19;5.80;;;4.30;;
7753;SDS011;3921;42.266;23.122;2023-03-01T10:07:58;4.97;;;3.93;;
7753;SDS011;3921;42.266;23.122;2023-03-01T10:10:34;5.63;;;4.43;;
7753;SDS011;3921;42.266;23.122;2023-03-01T10:13:07;6.53;;;4.37;;
7753;SDS011;3921;42.266;23.122;2023-03-01T10:15:41;8.77;;;5.80;;
7753;SDS011;3921;42.266;23.122;2023-03-01T10:18:12;8.37;;;4.83;;
7753;SDS011;3921;42.266;23.122;2023-03-01T10:20:45;4.60;;;3.70;;
7753;SDS011;3921;42.266;23.122;2023-03-01T10:23:18;5.57;;;4.10;;
7753;SDS011;3921;42.266;23.122;2023-03-01T10:25:55;5.10;;;3.70;;
7753;SDS011;3921;42.266;23.122;2023-03-01T10:28:31;4.53;;;3.70;;
7753;SDS011;3921;42.266;23.122;2023-03-01T10:31:11;4.00;;;3.30;;
7753;SDS011;3921;42.266;23.122;2023-03-01T10:33:40;4.37;;;3.70;;
7753;SDS011;3921;42.266;23.122;2023-03-01T10:36:08;4.83;;;3.87;;
7753;SDS011;3921;42.266;23.122;2023-03-01T10:38:47;4.50;;;3.63;;
7753;SDS011;3921;42.266;23.122;2023-03-01T10:41:19;5.43;;;3.97;;
7753;SDS011;3921;42.266;23.122;2023-03-01T10:43:49;4.23;;;3.77;;
7753;SDS011;3921;42.266;23.122;2023-03-01T10:46:24;4.20;;;3.80;;
7753;SDS011;3921;42.266;23.122;2023-03-01T10:49:06;3.90;;;3.47;;
7753;SDS011;3921;42.266;23.122;2023-03-01T10:51:38;4.50;;;4.10;;
7753;SDS011;3921;42.266;23.122;2023-03-01T10:54:14;6.30;;;4.67;;
7753;SDS011;3921;42.266;23.122;2023-03-01T10:56:49;4.47;;;3.87;;
7753;SDS011;3921;42.266;23.122;2023-03-01T10:59:22;6.70;;;4.80;;
7753;SDS011;3921;42.266;23.122;2023-03-01T11:04:56;9.40;;;5.43;;
7753;SDS011;3921;42.266;23.122;2023-03-01T11:07:27;7.43;;;5.43;;
7753;SDS011;3921;42.266;23.122;2023-03-01T11:09:55;8.13;;;6.10;;
7753;SDS011;3921;42.266;23.122;2023-03-01T11:12:23;8.23;;;4.73;;
7753;SDS011;3921;42.266;23.122;2023-03-01T11:14:54;8.70;;;6.00;;
7753;SDS011;3921;42.266;23.122;2023-03-01T11:17:23;8.43;;;5.90;;
7753;SDS011;3921;42.266;23.122;2023-03-01T11:20:00;7.93;;;4.73;;
7753;SDS011;3921;42.266;23.122;2023-03-01T11:22:31;5.33;;;4.57;;
7753;SDS011;3921;42.266;23.122;2023-03-01T11:25:00;5.33;;;4.60;;
7753;SDS011;3921;42.266;23.122;2023-03-01T11:27:30;6.13;;;4.63;;
7753;SDS011;3921;42.266;23.122;2023-03-01T11:29:59;4.67;;;3.97;;
7753;SDS011;3921;42.266;23.122;2023-03-01T11:32:32;7.10;;;4.23;;
7753;SDS011;3921;42.266;23.122;2023-03-01T11:35:08;6.13;;;4.13;;
7753;SDS011;3921;42.266;23.122;2023-03-01T11:37:42;4.97;;;3.90;;
7753;SDS011;3921;42.266;23.122;2023-03-01T11:40:16;6.27;;;4.33;;
7753;SDS011;3921;42.266;23.122;2023-03-01T11:42:52;8.67;;;5.40;;
7753;SDS011;3921;42.266;23.122;2023-03-01T11:45:26;7.03;;;5.13;;
7753;SDS011;3921;42.266;23.122;2023-03-01T11:48:10;8.10;;;5.43;;
7753;SDS011;3921;42.266;23.122;2023-03-01T11:50:51;6.17;;;4.60;;
7753;SDS011;3921;42.266;23.122;2023-03-01T11:53:27;5.67;;;4.73;;
7753;SDS011;3921;42.266;23.122;2023-03-01T11:56:09;6.30;;;4.40;;
7753;SDS011;3921;42.266;23.122;2023-03-01T11:59:02;4.70;;;4.20;;
7753;SDS011;3921;42.266;23.122;2023-03-01T12:01:55;11.47;;;6.10;;
7753;SDS011;3921;42.266;23.122;2023-03-01T12:04:47;4.73;;;4.17;;
7753;SDS011;3921;42.266;23.122;2023-03-01T12:07:28;7.13;;;4.47;;
7753;SDS011;3921;42.266;23.122;2023-03-01T12:10:19;5.53;;;4.87;;
7753;SDS011;3921;42.266;23.122;2023-03-01T12:21:51;8.80;;;5.30;;
7753;SDS011;3921;42.266;23.122;2023-03-01T12:27:30;7.43;;;4.80;;
7753;SDS011;3921;42.266;23.122;2023-03-01T12:30:24;8.17;;;5.20;;
7753;SDS011;3921;42.266;23.122;2023-03-01T12:33:04;4.70;;;4.30;;
7753;SDS011;3921;42.266;23.122;2023-03-01T12:35:47;5.10;;;4.60;;
7753;SDS011;3921;42.266;23.122;2023-03-01T12:38:48;6.60;;;5.23;;
7753;SDS011;3921;42.266;23.122;2023-03-01T12:41:22;6.73;;;5.80;;
7753;SDS011;3921;42.266;23.122;2023-03-01T12:44:07;9.57;;;5.73;;
7753;SDS011;3921;42.266;23.122;2023-03-01T12:46:46;6.67;;;5.97;;
7753;SDS011;3921;42.266;23.122;2023-03-01T12:49:25;6.50;;;4.97;;
7753;SDS011;3921;42.266;23.122;2023-03-01T12:51:58;5.27;;;4.47;;
7753;SDS011;3921;42.266;23.122;2023-03-01T12:54:35;6.47;;;5.13;;
7753;SDS011;3921;42.266;23.122;2023-03-01T12:57:06;5.47;;;4.37;;
7753;SDS011;3921;42.266;23.122;2023-03-01T12:59:39;7.20;;;5.03;;
7753;SDS011;3921;42.266;23.122;2023-03-01T13:02:15;6.00;;;4.40;;
7753;SDS011;3921;42.266;23.122;2023-03-01T13:04:56;8.53;;;4.47;;
7753;SDS011;3921;42.266;23.122;2023-03-01T13:07:34;6.93;;;5.10;;
7753;SDS011;3921;42.266;23.122;2023-03-01T13:10:11;7.60;;;5.40;;
7753;SDS011;3921;42.266;23.122;2023-03-01T13:12:53;7.60;;;5.37;;
7753;SDS011;3921;42.266;23.122;2023-03-01T13:15:30;7.73;;;5.47;;
7753;SDS011;3921;42.266;23.122;2023-03-01T13:18:00;7.07;;;4.97;;
7753;SDS011;3921;42.266;23.122;2023-03-01T13:20:32;7.53;;;5.30;;
7753;SDS011;3921;42.266;23.122;2023-03-01T13:23:12;7.17;;;5.37;;
7753;SDS011;3921;42.266;23.122;2023-03-01T13:26:07;7.10;;;5.57;;
7753;SDS011;3921;42.266;23.122;2023-03-01T13:28:47;6.37;;;4.87;;
7753;SDS011;3921;42.266;23.122;2023-03-01T13:34:42;6.87;;;4.60;;
7753;SDS011;3921;42.266;23.122;2023-03-01T13:40:07;5.87;;;4.50;;
7753;SDS011;3921;42.266;23.122;2023-03-01T13:43:23;8.47;;;5.60;;
7753;SDS011;3921;42.266;23.122;2023-03-01T13:45:55;7.87;;;5.43;;
7753;SDS011;3921;42.266;23.122;2023-03-01T13:48:24;8.40;;;6.17;;
7753;SDS011;3921;42.266;23.122;2023-03-01T13:50:54;10.60;;;6.13;;
7753;SDS011;3921;42.266;23.122;2023-03-01T13:53:29;7.80;;;5.43;;
7753;SDS011;3921;42.266;23.122;2023-03-01T13:56:00;6.33;;;4.77;;
7753;SDS011;3921;42.266;23.122;2023-03-01T13:58:30;6.97;;;4.67;;
7753;SDS011;3921;42.266;23.122;2023-03-01T14:00:59;5.73;;;4.43;;
7753;SDS011;3921;42.266;23.122;2023-03-01T14:03:31;6.67;;;4.70;;
7753;SDS011;3921;42.266;23.122;2023-03-01T14:06:00;6.83;;;4.83;;
7753;SDS011;3921;42.266;23.122;2023-03-01T14:08:36;5.63;;;4.57;;
7753;SDS011;3921;42.266;23.122;2023-03-01T14:11:08;7.60;;;4.70;;
7753;SDS011;3921;42.266;23.122;2023-03-01T14:14:03;7.03;;;5.77;;
7753;SDS011;3921;42.266;23.122;2023-03-01T14:16:51;6.77;;;4.63;;
7753;SDS011;3921;42.266;23.122;2023-03-01T14:19:25;6.93;;;4.83;;
7753;SDS011;3921;42.266;23.122;2023-03-01T14:22:12;6.00;;;5.07;;
7753;SDS011;3921;42.266;23.122;2023-03-01T14:24:46;8.33;;;4.90;;
7753;SDS011;3921;42.266;23.122;2023-03-01T14:27:15;9.43;;;5.33;;
7753;SDS011;3921;42.266;23.122;2023-03-01T14:29:44;6.60;;;4.50;;
7753;SDS011;3921;42.266;23.122;2023-03-01T14:32:22;7.90;;;5.60;;
7753;SDS011;3921;42.266;23.122;2023-03-01T14:34:53;7.60;;;4.90;;
7753;SDS011;3921;42.266;23.122;2023-03-01T14:37:21;8.80;;;5.50;;
7753;SDS011;3921;42.266;23.122;2023-03-01T14:39:55;7.10;;;5.33;;
7753;SDS011;3921;42.266;23.122;2023-03-01T14:42:24;6.50;;;5.03;;
7753;SDS011;3921;42.266;23.122;2023-03-01T14:44:56;7.60;;;5.67;;
7753;SDS011;3921;42.266;23.122;2023-03-01T14:47:27;7.73;;;5.13;;
7753;SDS011;3921;42.266;23.122;2023-03-01T14:49:59;7.23;;;5.27;;
7753;SDS011;3921;42.266;23.122;2023-03-01T14:52:37;8.97;;;5.87;;
7753;SDS011;3921;42.266;23.122;2023-03-01T14:55:15;6.73;;;5.17;;
7753;SDS011;3921;42.266;23.122;2023-03-01T14:57:44;8.20;;;5.37;;
7753;SDS011;3921;42.266;23.122;2023-03-01T15:00:17;5.73;;;4.97;;
7753;SDS011;3921;42.266;23.122;2023-03-01T15:02:47;6.60;;;4.87;;
7753;SDS011;3921;42.266;23.122;2023-03-01T15:05:15;8.10;;;5.80;;
7753;SDS011;3921;42.266;23.122;2023-03-01T15:07:52;9.20;;;7.17;;
7753;SDS011;3921;42.266;23.122;2023-03-01T15:10:21;6.23;;;5.13;;
7753;SDS011;3921;42.266;23.122;2023-03-01T15:12:49;8.00;;;6.37;;
7753;SDS011;3921;42.266;23.122;2023-03-01T15:18:11;8.90;;;5.83;;
7753;SDS011;3921;42.266;23.122;2023-03-01T15:20:42;7.57;;;5.43;;
7753;SDS011;3921;42.266;23.122;2023-03-01T15:23:20;8.43;;;6.13;;
7753;SDS011;3921;42.266;23.122;2023-03-01T15:25:51;8.43;;;6.17;;
7753;SDS011;3921;42.266;23.122;2023-03-01T15:28:23;8.30;;;6.20;;
7753;SDS011;3921;42.266;23.122;2023-03-01T15:30:52;8.77;;;6.90;;
7753;SDS011;3921;42.266;23.122;2023-03-01T15:33:31;10.00;;;7.17;;
7753;SDS011;3921;42.266;23.122;2023-03-01T15:36:00;11.30;;;6.77;;
7753;SDS011;3921;42.266;23.122;2023-03-01T15:38:30;12.33;;;6.80;;
7753;SDS011;3921;42.266;23.122;2023-03-01T15:41:02;10.77;;;7.60;;
7753;SDS011;3921;42.266;23.122;2023-03-01T15:43:37;13.10;;;8.20;;
7753;SDS011;3921;42.266;23.122;2023-03-01T15:46:12;9.60;;;7.27;;
7753;SDS011;3921;42.266;23.122;2023-03-01T15:48:47;9.83;;;6.97;;
7753;SDS011;3921;42.266;23.122;2023-03-01T15:51:17;8.20;;;6.53;;
7753;SDS011;3921;42.266;23.122;2023-03-01T15:53:50;8.70;;;6.27;;
7753;SDS011;3921;42.266;23.122;2023-03-01T15:56:20;9.57;;;6.23;;
7753;SDS011;3921;42.266;23.122;2023-03-01T15:58:48;8.43;;;6.17;;
7753;SDS011;3921;42.266;23.122;2023-03-01T16:01:15;8.77;;;6.53;;